createdAt,value
2019-05-09T00:00:34.535Z,10.90
2019-05-09T00:01:38.237Z,11.33
2019-05-09T00:02:43.653Z,14.27
2019-05-09T00:03:47.287Z,11.40
2019-05-09T00:04:53.145Z,9.60
2019-05-09T00:05:56.434Z,10.60
2019-05-09T00:07:00.198Z,11.57
2019-05-09T00:08:03.846Z,11.90
2019-05-09T00:09:07.587Z,11.00
2019-05-09T00:10:11.425Z,10.57
2019-05-09T00:11:15.127Z,12.27
2019-05-09T00:12:19.345Z,12.87
2019-05-09T00:13:23.781Z,10.20
2019-05-09T00:14:27.602Z,14.17
2019-05-09T00:15:33.282Z,14.23
2019-05-09T00:16:37.217Z,10.37
2019-05-09T00:17:40.916Z,12.63
2019-05-09T00:18:44.552Z,9.93
2019-05-09T00:19:48.564Z,10.83
2019-05-09T00:20:54.062Z,12.67
2019-05-09T00:21:57.738Z,11.33
2019-05-09T00:23:03.264Z,13.33
2019-05-09T00:24:06.830Z,14.50
2019-05-09T00:25:10.489Z,13.23
2019-05-09T00:26:14.478Z,16.23
2019-05-09T00:27:18.134Z,19.23
2019-05-09T00:28:23.624Z,19.80
2019-05-09T00:29:46.895Z,17.17
2019-05-09T00:30:55.229Z,16.33
2019-05-09T00:32:09.462Z,13.20
2019-05-09T00:33:14.313Z,15.13
2019-05-09T00:34:35.688Z,12.43
2019-05-09T00:35:39.504Z,12.40
2019-05-09T00:36:43.779Z,11.80
2019-05-09T00:37:55.347Z,10.93
2019-05-09T00:38:59.077Z,14.93
2019-05-09T00:40:04.065Z,11.17
2019-05-09T00:41:07.787Z,10.03
2019-05-09T00:42:13.537Z,11.87
2019-05-09T00:43:16.836Z,9.43
2019-05-09T00:44:23.256Z,13.03
2019-05-09T00:45:34.445Z,11.10
2019-05-09T00:46:43.163Z,13.10
2019-05-09T00:47:46.856Z,11.10
2019-05-09T00:48:53.354Z,14.17
2019-05-09T00:49:57.092Z,9.77
2019-05-09T00:51:00.715Z,11.87
2019-05-09T00:52:04.365Z,13.00
2019-05-09T00:53:07.925Z,10.33
2019-05-09T00:54:13.498Z,10.40
2019-05-09T00:55:17.006Z,11.07
2019-05-09T00:56:21.022Z,10.00
2019-05-09T00:57:33.644Z,9.33
2019-05-09T00:58:37.306Z,11.13
2019-05-09T00:59:40.972Z,13.83
2019-05-09T01:00:44.665Z,9.80
2019-05-09T01:01:48.687Z,13.07
2019-05-09T01:02:54.188Z,8.53
2019-05-09T01:03:57.675Z,11.73
2019-05-09T01:05:04.015Z,11.07
2019-05-09T01:06:06.873Z,11.50
2019-05-09T01:07:10.463Z,12.87
2019-05-09T01:08:14.184Z,9.27
2019-05-09T01:09:18.019Z,17.87
2019-05-09T01:10:23.697Z,12.97
2019-05-09T01:11:27.151Z,17.03
2019-05-09T01:12:30.843Z,20.63
2019-05-09T01:13:34.476Z,15.33
2019-05-09T01:14:38.108Z,17.37
2019-05-09T01:15:43.880Z,18.87
2019-05-09T01:16:47.185Z,13.30
2019-05-09T01:17:53.437Z,11.50
2019-05-09T01:18:56.996Z,17.10
2019-05-09T01:20:03.080Z,14.47
2019-05-09T01:21:06.034Z,14.13
2019-05-09T01:22:09.727Z,12.33
2019-05-09T01:23:14.286Z,12.03
2019-05-09T01:24:18.201Z,10.87
2019-05-09T01:25:23.868Z,12.70
2019-05-09T01:26:27.233Z,10.63
2019-05-09T01:27:30.945Z,11.27
2019-05-09T01:28:34.582Z,16.40
2019-05-09T01:29:38.209Z,11.47
2019-05-09T01:30:43.848Z,14.40
2019-05-09T01:31:47.691Z,9.37
2019-05-09T01:32:53.936Z,10.60
2019-05-09T01:34:14.435Z,15.60
2019-05-09T01:35:18.088Z,10.87
2019-05-09T01:36:23.501Z,12.30
2019-05-09T01:37:27.131Z,10.77
2019-05-09T01:38:30.773Z,11.47
2019-05-09T01:39:35.702Z,10.83
2019-05-09T01:40:39.830Z,9.40
2019-05-09T01:41:43.685Z,14.30
2019-05-09T01:42:48.024Z,9.60
2019-05-09T01:43:53.652Z,11.40
2019-05-09T01:44:57.032Z,11.67
2019-05-09T01:46:00.668Z,12.63
2019-05-09T01:47:04.663Z,12.73
2019-05-09T01:48:08.345Z,11.57
2019-05-09T01:49:13.850Z,10.40
2019-05-09T01:50:17.347Z,9.93
2019-05-09T01:51:23.150Z,12.03
2019-05-09T01:52:26.400Z,14.20
2019-05-09T01:53:33.421Z,11.00
2019-05-09T01:54:38.500Z,10.40
2019-05-09T01:56:03.689Z,13.90
2019-05-09T01:57:07.222Z,8.93
2019-05-09T01:58:10.851Z,9.53
2019-05-09T01:59:14.519Z,9.07
2019-05-09T02:00:18.424Z,8.10
2019-05-09T02:01:24.050Z,9.70
2019-05-09T02:02:27.524Z,10.53
2019-05-09T02:03:33.496Z,11.37
2019-05-09T02:04:36.599Z,9.93
2019-05-09T02:05:40.221Z,12.03
2019-05-09T02:06:44.110Z,11.83
2019-05-09T02:07:47.792Z,9.20
2019-05-09T02:08:51.496Z,12.43
2019-05-09T02:09:55.127Z,12.37
2019-05-09T02:10:59.155Z,11.07
2019-05-09T02:12:03.891Z,9.20
2019-05-09T02:13:07.893Z,12.10
2019-05-09T02:14:13.599Z,11.47
2019-05-09T02:15:24.772Z,11.53
2019-05-09T02:16:36.088Z,10.00
2019-05-09T02:17:54.877Z,10.50
2019-05-09T02:19:04.038Z,10.30
2019-05-09T02:20:08.424Z,12.27
2019-05-09T02:21:14.425Z,9.53
2019-05-09T02:22:36.339Z,9.07
2019-05-09T02:23:39.963Z,11.63
2019-05-09T02:24:44.116Z,10.53
2019-05-09T02:25:48.159Z,10.47
2019-05-09T02:26:53.336Z,11.80
2019-05-09T02:27:57.511Z,10.80
2019-05-09T02:29:03.231Z,12.23
2019-05-09T02:30:15.382Z,12.10
2019-05-09T02:31:17.457Z,10.87
2019-05-09T02:32:23.758Z,12.43
2019-05-09T02:33:26.492Z,13.47
2019-05-09T02:34:30.130Z,11.50
2019-05-09T02:35:41.637Z,12.70
2019-05-09T02:36:39.525Z,11.53
2019-05-09T02:37:43.538Z,10.93
2019-05-09T02:38:48.715Z,9.23
2019-05-09T02:39:53.054Z,11.67
2019-05-09T02:40:59.472Z,10.33
2019-05-09T02:42:09.496Z,13.43
2019-05-09T02:43:09.920Z,13.73
2019-05-09T02:44:12.820Z,13.27
2019-05-09T02:45:19.113Z,13.43
2019-05-09T02:46:29.094Z,15.70
2019-05-09T02:47:32.269Z,11.23
2019-05-09T02:48:38.599Z,15.20
2019-05-09T02:49:41.688Z,11.10
2019-05-09T02:50:48.234Z,11.40
2019-05-09T02:51:50.696Z,12.47
2019-05-09T02:52:54.457Z,12.33
2019-05-09T02:53:58.700Z,12.17
2019-05-09T02:55:02.663Z,11.97
2019-05-09T02:56:09.063Z,12.13
2019-05-09T02:57:11.756Z,13.30
2019-05-09T02:58:20.445Z,11.53
2019-05-09T02:59:29.694Z,11.80
2019-05-09T03:00:52.293Z,13.80
2019-05-09T03:02:12.765Z,14.50
2019-05-09T03:03:19.894Z,13.27
2019-05-09T03:04:23.403Z,15.50
2019-05-09T03:05:29.644Z,13.53
2019-05-09T03:06:32.541Z,10.87
2019-05-09T03:07:51.843Z,14.10
2019-05-09T03:08:55.602Z,16.13
2019-05-09T03:10:00.194Z,14.90
2019-05-09T03:11:03.877Z,11.73
2019-05-09T03:12:22.683Z,10.57
2019-05-09T03:13:13.247Z,11.97
2019-05-09T03:14:19.492Z,11.73
2019-05-09T03:15:22.979Z,11.00
2019-05-09T03:16:29.368Z,12.60
2019-05-09T03:17:32.084Z,9.50
2019-05-09T03:18:38.704Z,12.63
2019-05-09T03:19:41.241Z,12.77
2019-05-09T03:20:49.201Z,13.47
2019-05-09T03:22:03.528Z,14.80
2019-05-09T03:23:09.210Z,10.67
2019-05-09T03:24:12.520Z,20.00
2019-05-09T03:25:19.002Z,14.13
2019-05-09T03:26:23.184Z,12.33
2019-05-09T03:27:28.941Z,17.60
2019-05-09T03:28:48.964Z,15.17
2019-05-09T03:29:53.888Z,14.60
2019-05-09T03:31:01.868Z,14.33
2019-05-09T03:32:09.206Z,14.43
2019-05-09T03:33:11.225Z,17.80
2019-05-09T03:34:14.853Z,18.60
2019-05-09T03:35:18.863Z,16.37
2019-05-09T03:36:22.604Z,13.57
2019-05-09T03:37:27.829Z,18.07
2019-05-09T03:38:31.606Z,16.33
2019-05-09T03:39:37.724Z,16.73
2019-05-09T03:40:41.085Z,16.10
2019-05-09T03:41:44.758Z,19.73
2019-05-09T03:42:52.958Z,18.37
2019-05-09T03:43:58.607Z,21.73
2019-05-09T03:45:02.049Z,18.70
2019-05-09T03:46:10.205Z,14.97
2019-05-09T03:47:21.434Z,13.67
2019-05-09T03:48:42.207Z,18.47
2019-05-09T03:49:47.704Z,20.20
2019-05-09T03:50:51.419Z,21.10
2019-05-09T03:51:55.370Z,12.87
2019-05-09T03:52:59.398Z,16.47
2019-05-09T03:54:03.030Z,15.07
2019-05-09T03:55:10.554Z,17.80
2019-05-09T03:56:19.357Z,17.53
2019-05-09T03:57:30.481Z,18.30
2019-05-09T03:58:34.179Z,16.87
2019-05-09T03:59:38.207Z,18.70
2019-05-09T04:00:41.993Z,22.93
2019-05-09T04:01:47.796Z,19.00
2019-05-09T04:02:51.038Z,19.90
2019-05-09T04:03:54.839Z,19.13
2019-05-09T04:04:58.851Z,21.27
2019-05-09T04:06:03.227Z,19.43
2019-05-09T04:07:08.422Z,21.30
2019-05-09T04:08:19.872Z,22.57
2019-05-09T04:09:23.647Z,26.43
2019-05-09T04:10:28.214Z,29.17
2019-05-09T04:11:31.864Z,24.00
2019-05-09T04:12:37.431Z,19.03
2019-05-09T04:13:54.604Z,22.67
2019-05-09T04:14:58.492Z,24.50
2019-05-09T04:16:02.190Z,28.63
2019-05-09T04:17:07.906Z,24.30
2019-05-09T04:18:11.206Z,24.80
2019-05-09T04:19:14.911Z,26.10
2019-05-09T04:20:18.567Z,24.13
2019-05-09T04:21:23.670Z,20.37
2019-05-09T04:22:27.697Z,19.33
2019-05-09T04:23:31.636Z,17.53
2019-05-09T04:24:38.096Z,20.10
2019-05-09T04:25:44.706Z,18.37
2019-05-09T04:26:52.648Z,15.63
2019-05-09T04:27:58.333Z,15.23
2019-05-09T04:29:01.726Z,15.73
2019-05-09T04:30:09.432Z,17.70
2019-05-09T04:31:13.414Z,15.90
2019-05-09T04:32:18.280Z,15.57
2019-05-09T04:33:22.163Z,15.07
2019-05-09T04:34:27.594Z,13.70
2019-05-09T04:35:31.601Z,17.53
2019-05-09T04:36:41.373Z,16.27
2019-05-09T04:37:45.020Z,23.13
2019-05-09T04:38:48.723Z,15.83
2019-05-09T04:39:54.087Z,15.90
2019-05-09T04:40:58.368Z,25.03
2019-05-09T04:42:05.459Z,19.03
2019-05-09T04:43:14.269Z,18.97
2019-05-09T04:44:20.949Z,17.60
2019-05-09T04:45:42.857Z,18.50
2019-05-09T04:46:48.021Z,32.23
2019-05-09T04:47:51.843Z,22.20
2019-05-09T04:48:59.370Z,20.13
2019-05-09T04:50:00.898Z,22.40
2019-05-09T04:51:07.865Z,28.20
2019-05-09T04:52:12.056Z,21.20
2019-05-09T04:53:15.682Z,25.30
2019-05-09T04:54:19.842Z,22.57
2019-05-09T04:55:24.460Z,22.63
2019-05-09T04:56:32.704Z,27.70
2019-05-09T04:57:38.252Z,20.73
2019-05-09T04:58:41.725Z,18.67
2019-05-09T04:59:47.398Z,34.63
2019-05-09T05:01:10.821Z,28.10
2019-05-09T05:02:21.955Z,26.90
2019-05-09T05:03:25.547Z,26.87
2019-05-09T05:04:29.220Z,23.13
2019-05-09T05:05:32.866Z,24.17
2019-05-09T05:06:40.234Z,29.07
2019-05-09T05:07:41.877Z,25.67
2019-05-09T05:08:47.819Z,20.10
2019-05-09T05:09:51.012Z,16.77
2019-05-09T05:10:54.639Z,16.63
2019-05-09T05:11:58.881Z,17.90
2019-05-09T05:13:03.955Z,17.80
2019-05-09T05:14:09.437Z,17.90
2019-05-09T05:15:13.748Z,17.57
2019-05-09T05:16:18.436Z,17.77
2019-05-09T05:17:22.367Z,23.00
2019-05-09T05:18:28.286Z,19.07
2019-05-09T05:19:35.475Z,20.43
2019-05-09T05:20:38.071Z,17.63
2019-05-09T05:21:41.778Z,18.90
2019-05-09T05:22:57.951Z,19.83
2019-05-09T05:24:02.689Z,17.63
2019-05-09T05:25:09.280Z,20.87
2019-05-09T05:26:12.393Z,16.13
2019-05-09T05:27:18.642Z,19.27
2019-05-09T05:28:21.948Z,18.00
2019-05-09T05:29:28.035Z,18.17
2019-05-09T05:30:31.021Z,17.97
2019-05-09T05:31:35.087Z,17.40
2019-05-09T05:32:43.142Z,18.20
2019-05-09T05:33:53.869Z,19.73
2019-05-09T05:34:58.448Z,20.53
2019-05-09T05:36:09.997Z,17.90
2019-05-09T05:37:13.931Z,21.73
2019-05-09T05:38:17.800Z,19.40
2019-05-09T05:39:21.414Z,19.07
2019-05-09T05:40:25.066Z,15.40
2019-05-09T05:41:28.697Z,17.50
2019-05-09T05:42:32.371Z,19.17
2019-05-09T05:43:43.337Z,16.70
2019-05-09T05:44:41.392Z,20.07
2019-05-09T05:45:47.955Z,20.57
2019-05-09T05:47:08.328Z,28.97
2019-05-09T05:48:13.649Z,20.23
2019-05-09T05:49:18.628Z,22.43
2019-05-09T05:50:22.477Z,19.63
2019-05-09T05:51:27.724Z,16.63
2019-05-09T05:52:31.619Z,18.97
2019-05-09T05:53:38.036Z,20.23
2019-05-09T05:54:42.130Z,18.30
2019-05-09T05:55:48.601Z,19.37
2019-05-09T05:56:51.608Z,19.77
2019-05-09T05:57:57.725Z,23.43
2019-05-09T05:59:00.673Z,21.17
2019-05-09T06:00:07.940Z,15.10
2019-05-09T06:01:12.029Z,21.23
2019-05-09T06:02:17.759Z,14.00
2019-05-09T06:03:21.065Z,13.00
2019-05-09T06:04:24.740Z,18.63
2019-05-09T06:05:28.364Z,14.40
2019-05-09T06:06:33.088Z,14.00
2019-05-09T06:07:37.847Z,13.03
2019-05-09T06:08:41.988Z,16.90
2019-05-09T06:09:47.694Z,13.70
2019-05-09T06:10:51.026Z,13.50
2019-05-09T06:11:54.662Z,14.33
2019-05-09T06:12:58.371Z,15.27
2019-05-09T06:14:08.648Z,11.40
2019-05-09T06:15:07.838Z,14.00
2019-05-09T06:16:11.826Z,13.27
2019-05-09T06:17:17.949Z,12.33
2019-05-09T06:18:20.931Z,12.63
2019-05-09T06:19:24.768Z,14.10
2019-05-09T06:20:28.443Z,11.53
2019-05-09T06:21:32.080Z,12.53
2019-05-09T06:22:38.156Z,12.23
2019-05-09T06:23:41.426Z,11.50
2019-05-09T06:24:45.060Z,18.27
2019-05-09T06:25:48.831Z,11.87
2019-05-09T06:26:52.423Z,13.60
2019-05-09T06:27:58.250Z,12.37
2019-05-09T06:29:01.808Z,13.07
2019-05-09T06:30:08.634Z,15.33
2019-05-09T06:31:12.879Z,11.90
2019-05-09T06:32:18.882Z,10.37
2019-05-09T06:33:21.987Z,11.20
2019-05-09T06:34:30.412Z,9.20
2019-05-09T06:35:31.205Z,9.97
2019-05-09T06:36:34.849Z,11.10
2019-05-09T06:37:38.569Z,13.50
2019-05-09T06:38:42.245Z,11.67
2019-05-09T06:39:45.875Z,11.43
2019-05-09T06:40:49.550Z,9.80
2019-05-09T06:41:53.209Z,11.07
2019-05-09T06:42:59.829Z,13.80
2019-05-09T06:44:14.200Z,15.23
2019-05-09T06:45:19.671Z,15.37
2019-05-09T06:46:30.867Z,10.73
2019-05-09T06:47:38.097Z,7.67
2019-05-09T06:48:42.534Z,8.40
2019-05-09T06:49:50.067Z,11.47
2019-05-09T06:50:53.826Z,8.63
2019-05-09T06:51:58.056Z,10.87
2019-05-09T06:53:01.818Z,11.70
2019-05-09T06:54:05.513Z,11.50
2019-05-09T06:55:09.348Z,11.10
2019-05-09T06:56:13.006Z,8.87
2019-05-09T06:57:18.692Z,9.77
2019-05-09T06:58:38.324Z,11.27
2019-05-09T06:59:42.194Z,9.10
2019-05-09T07:00:48.913Z,10.83
2019-05-09T07:01:54.342Z,9.47
2019-05-09T07:03:00.811Z,8.97
2019-05-09T07:04:06.343Z,12.37
2019-05-09T07:05:11.833Z,10.23
2019-05-09T07:06:17.758Z,8.83
2019-05-09T07:07:23.218Z,8.33
2019-05-09T07:08:44.541Z,7.37
2019-05-09T07:09:52.919Z,11.97
2019-05-09T07:10:58.434Z,9.83
2019-05-09T07:12:02.686Z,7.53
2019-05-09T07:13:07.967Z,8.00
2019-05-09T07:14:33.190Z,8.37
2019-05-09T07:15:37.654Z,6.60
2019-05-09T07:16:41.501Z,6.70
2019-05-09T07:17:45.128Z,7.10
2019-05-09T07:18:50.818Z,7.17
2019-05-09T07:19:54.527Z,8.77
2019-05-09T07:20:58.237Z,7.90
2019-05-09T07:22:18.192Z,10.33
2019-05-09T07:23:21.279Z,8.87
2019-05-09T07:24:24.839Z,9.07
2019-05-09T07:25:37.771Z,7.70
2019-05-09T07:26:41.564Z,12.33
2019-05-09T07:27:48.376Z,10.80
2019-05-09T07:28:52.125Z,11.43
2019-05-09T07:29:58.223Z,11.47
2019-05-09T07:31:23.475Z,8.97
2019-05-09T07:32:28.775Z,13.87
2019-05-09T07:33:51.955Z,10.03
2019-05-09T07:34:57.924Z,11.37
2019-05-09T07:36:01.695Z,9.60
2019-05-09T07:37:05.394Z,9.47
2019-05-09T07:38:09.053Z,9.80
2019-05-09T07:39:13.005Z,7.70
2019-05-09T07:40:18.063Z,10.00
2019-05-09T07:41:22.109Z,9.53
2019-05-09T07:42:28.351Z,11.13
2019-05-09T07:43:31.346Z,10.97
2019-05-09T07:44:46.205Z,12.27
2019-05-09T07:45:42.102Z,9.23
2019-05-09T07:46:47.520Z,8.33
2019-05-09T07:47:51.168Z,10.20
2019-05-09T07:48:57.806Z,7.33
2019-05-09T07:50:01.700Z,7.20
2019-05-09T07:51:07.816Z,7.40
2019-05-09T07:52:13.990Z,6.60
2019-05-09T07:53:17.792Z,9.67
2019-05-09T07:54:25.555Z,7.50
2019-05-09T07:55:27.520Z,10.10
2019-05-09T07:56:31.285Z,7.50
2019-05-09T07:57:35.034Z,8.63
2019-05-09T07:58:38.813Z,7.17
2019-05-09T07:59:42.510Z,8.00
2019-05-09T08:00:48.275Z,8.33
2019-05-09T08:01:51.641Z,7.40
2019-05-09T08:02:55.342Z,7.57
2019-05-09T08:03:59.252Z,7.57
2019-05-09T08:05:02.858Z,13.00
2019-05-09T08:06:08.698Z,11.07
2019-05-09T08:07:12.219Z,7.93
2019-05-09T08:08:18.631Z,6.40
2019-05-09T08:09:22.916Z,10.13
2019-05-09T08:10:30.611Z,5.23
2019-05-09T08:11:32.437Z,8.23
2019-05-09T08:12:38.710Z,7.73
2019-05-09T08:13:41.519Z,5.13
2019-05-09T08:14:45.190Z,5.30
2019-05-09T08:15:48.832Z,7.80
2019-05-09T08:16:52.553Z,5.43
2019-05-09T08:17:58.928Z,9.17
2019-05-09T08:19:02.358Z,8.07
2019-05-09T08:20:07.915Z,8.07
2019-05-09T08:21:12.264Z,6.20
2019-05-09T08:22:21.215Z,7.60
2019-05-09T08:23:21.369Z,8.27
2019-05-09T08:24:27.564Z,7.70
2019-05-09T08:25:30.719Z,6.37
2019-05-09T08:26:34.398Z,6.93
2019-05-09T08:27:38.128Z,8.57
2019-05-09T08:28:41.751Z,8.50
2019-05-09T08:29:47.721Z,8.83
2019-05-09T08:30:50.804Z,6.00
2019-05-09T08:31:54.506Z,12.67
2019-05-09T08:32:59.903Z,8.07
2019-05-09T08:34:03.932Z,8.63
2019-05-09T08:35:08.423Z,7.37
2019-05-09T08:36:12.464Z,6.40
2019-05-09T08:37:17.559Z,9.33
2019-05-09T08:38:21.368Z,8.53
2019-05-09T08:39:27.512Z,9.30
2019-05-09T08:40:30.496Z,7.33
2019-05-09T08:41:34.287Z,7.27
2019-05-09T08:42:38.061Z,7.93
2019-05-09T08:43:43.042Z,6.03
2019-05-09T08:44:48.275Z,7.47
2019-05-09T08:45:51.928Z,6.37
2019-05-09T08:46:57.422Z,10.10
2019-05-09T08:48:01.259Z,7.33
2019-05-09T08:49:07.971Z,8.03
2019-05-09T08:50:13.322Z,6.67
2019-05-09T08:51:18.929Z,9.40
2019-05-09T08:52:22.689Z,5.30
2019-05-09T08:53:27.573Z,6.07
2019-05-09T08:54:37.853Z,6.77
2019-05-09T08:55:41.003Z,6.63
2019-05-09T08:56:44.731Z,6.30
2019-05-09T08:57:48.529Z,6.23
2019-05-09T08:58:52.222Z,5.60
2019-05-09T08:59:58.978Z,4.93
2019-05-09T09:01:04.463Z,6.53
2019-05-09T09:02:14.816Z,5.30
2019-05-09T09:03:13.666Z,8.40
2019-05-09T09:04:18.934Z,8.83
2019-05-09T09:05:22.777Z,6.33
2019-05-09T09:06:27.835Z,7.37
2019-05-09T09:07:32.088Z,5.53
2019-05-09T09:08:37.958Z,6.07
2019-05-09T09:09:41.754Z,8.53
2019-05-09T09:10:45.443Z,8.13
2019-05-09T09:11:49.136Z,7.73
2019-05-09T09:12:52.794Z,6.60
2019-05-09T09:13:57.656Z,5.60
2019-05-09T09:15:01.693Z,5.83
2019-05-09T09:16:15.814Z,5.93
2019-05-09T09:17:12.633Z,6.53
2019-05-09T09:18:17.989Z,5.23
2019-05-09T09:19:24.426Z,4.37
2019-05-09T09:20:28.799Z,5.73
2019-05-09T09:21:32.796Z,5.67
2019-05-09T09:22:37.568Z,5.13
2019-05-09T09:23:47.152Z,9.07
2019-05-09T09:24:59.205Z,5.83
2019-05-09T09:26:02.921Z,4.73
2019-05-09T09:27:07.747Z,5.93
2019-05-09T09:28:11.617Z,3.80
2019-05-09T09:29:17.729Z,6.27
2019-05-09T09:30:25.124Z,8.20
2019-05-09T09:31:29.047Z,5.53
2019-05-09T09:32:32.690Z,6.37
2019-05-09T09:33:37.872Z,5.57
2019-05-09T09:34:42.517Z,4.73
2019-05-09T09:35:48.697Z,5.47
2019-05-09T09:36:51.893Z,6.03
2019-05-09T09:37:57.774Z,8.63
2019-05-09T09:39:02.954Z,5.20
2019-05-09T09:40:08.632Z,8.80
2019-05-09T09:41:12.473Z,8.03
2019-05-09T09:42:20.055Z,4.10
2019-05-09T09:43:22.287Z,7.23
2019-05-09T09:44:28.483Z,5.67
2019-05-09T09:45:31.340Z,5.53
2019-05-09T09:46:37.328Z,6.60
2019-05-09T09:47:40.765Z,4.10
2019-05-09T09:48:44.577Z,5.63
2019-05-09T09:49:49.117Z,7.50
2019-05-09T09:50:53.014Z,5.73
2019-05-09T09:51:58.139Z,5.93
2019-05-09T09:53:02.008Z,6.67
2019-05-09T09:54:08.553Z,4.27
2019-05-09T09:55:11.316Z,4.83
2019-05-09T09:56:17.665Z,5.87
2019-05-09T09:57:20.773Z,5.60
2019-05-09T09:58:24.439Z,4.37
2019-05-09T09:59:29.804Z,4.83
2019-05-09T10:00:58.204Z,6.40
2019-05-09T10:02:02.997Z,7.40
2019-05-09T10:03:08.422Z,6.87
2019-05-09T10:04:20.740Z,6.47
2019-05-09T10:05:19.114Z,10.63
2019-05-09T10:06:23.163Z,5.80
2019-05-09T10:07:27.959Z,7.57
2019-05-09T10:08:31.785Z,5.67
2019-05-09T10:09:35.735Z,5.27
2019-05-09T10:10:39.499Z,13.33
2019-05-09T10:11:43.603Z,9.30
2019-05-09T10:12:49.389Z,7.83
2019-05-09T10:13:52.732Z,5.40
2019-05-09T10:15:01.032Z,5.30
2019-05-09T10:16:09.729Z,4.97
2019-05-09T10:17:13.432Z,8.07
2019-05-09T10:18:38.125Z,5.10
2019-05-09T10:19:49.781Z,6.73
2019-05-09T10:20:58.681Z,6.83
2019-05-09T10:22:08.441Z,11.43
2019-05-09T10:23:18.179Z,8.70
2019-05-09T10:24:17.596Z,5.07
2019-05-09T10:25:21.709Z,7.07
2019-05-09T10:26:25.357Z,6.70
2019-05-09T10:27:29.304Z,6.80
2019-05-09T10:28:32.985Z,10.37
2019-05-09T10:29:38.859Z,11.07
2019-05-09T10:30:42.911Z,7.90
2019-05-09T10:31:48.774Z,6.43
2019-05-09T10:32:52.054Z,7.33
2019-05-09T10:33:57.820Z,6.07
2019-05-09T10:35:01.463Z,7.70
2019-05-09T10:36:06.147Z,5.37
2019-05-09T10:37:10.923Z,5.50
2019-05-09T10:38:14.703Z,9.37
2019-05-09T10:39:18.794Z,5.63
2019-05-09T10:40:28.054Z,8.27
2019-05-09T10:41:31.759Z,9.53
2019-05-09T10:42:37.907Z,5.30
2019-05-09T10:43:50.926Z,6.47
2019-05-09T10:45:14.257Z,4.50
2019-05-09T10:46:48.414Z,6.23
2019-05-09T10:47:38.180Z,5.17
2019-05-09T10:48:43.541Z,5.47
2019-05-09T10:49:49.709Z,4.20
2019-05-09T10:50:54.718Z,5.27
2019-05-09T10:51:58.889Z,6.07
2019-05-09T10:53:02.791Z,4.97
2019-05-09T10:54:08.107Z,5.90
2019-05-09T10:55:12.160Z,5.63
2019-05-09T10:56:18.376Z,5.03
2019-05-09T10:57:21.414Z,6.17
2019-05-09T10:58:25.181Z,7.30
2019-05-09T10:59:29.323Z,8.07
2019-05-09T11:00:33.091Z,7.83
2019-05-09T11:01:38.226Z,5.10
2019-05-09T11:02:42.349Z,7.67
2019-05-09T11:03:48.269Z,6.90
2019-05-09T11:04:51.499Z,6.50
2019-05-09T11:05:57.949Z,7.30
2019-05-09T11:07:01.757Z,6.17
2019-05-09T11:08:08.113Z,14.23
2019-05-09T11:09:11.793Z,12.50
2019-05-09T11:10:25.689Z,10.37
2019-05-09T11:11:21.537Z,4.40
2019-05-09T11:12:27.523Z,7.57
2019-05-09T11:13:30.838Z,6.73
2019-05-09T11:14:44.970Z,8.37
2019-05-09T11:15:49.097Z,8.93
2019-05-09T11:17:06.683Z,8.17
2019-05-09T11:17:58.409Z,7.03
2019-05-09T11:19:02.790Z,8.87
2019-05-09T11:20:08.882Z,11.37
2019-05-09T11:21:13.252Z,7.10
2019-05-09T11:22:18.295Z,7.23
2019-05-09T11:23:22.197Z,7.37
2019-05-09T11:24:40.586Z,6.73
2019-05-09T11:25:31.333Z,8.13
2019-05-09T11:26:39.545Z,11.07
2019-05-09T11:27:41.979Z,7.23
2019-05-09T11:28:45.664Z,5.57
2019-05-09T11:29:49.991Z,7.60
2019-05-09T11:30:54.082Z,8.77
2019-05-09T11:31:58.746Z,11.47
2019-05-09T11:33:02.610Z,8.10
2019-05-09T11:34:08.849Z,10.47
2019-05-09T11:35:12.275Z,8.40
2019-05-09T11:36:20.813Z,9.47
2019-05-09T11:37:23.093Z,5.60
2019-05-09T11:38:35.089Z,8.90
2019-05-09T11:39:39.038Z,8.40
2019-05-09T11:40:44.588Z,5.87
2019-05-09T11:41:48.810Z,7.70
2019-05-09T11:42:52.715Z,9.10
2019-05-09T11:43:59.199Z,6.27
2019-05-09T11:45:01.947Z,7.03
2019-05-09T11:46:10.268Z,6.17
2019-05-09T11:47:30.907Z,8.97
2019-05-09T11:48:18.555Z,7.27
2019-05-09T11:49:21.840Z,8.17
2019-05-09T11:50:25.636Z,11.83
2019-05-09T11:51:29.620Z,7.87
2019-05-09T11:52:33.391Z,6.63
2019-05-09T11:53:39.966Z,10.53
2019-05-09T11:54:42.503Z,9.43
2019-05-09T11:55:48.325Z,9.13
2019-05-09T11:56:52.106Z,8.57
2019-05-09T11:57:58.786Z,9.83
2019-05-09T11:59:01.170Z,6.83
2019-05-09T12:00:08.292Z,6.63
2019-05-09T12:01:11.988Z,9.10
2019-05-09T12:02:17.919Z,8.07
2019-05-09T12:03:21.078Z,6.83
2019-05-09T12:04:28.161Z,7.47
2019-05-09T12:05:30.244Z,8.47
2019-05-09T12:06:34.039Z,8.17
2019-05-09T12:07:38.158Z,12.17
2019-05-09T12:08:41.937Z,9.20
2019-05-09T12:09:45.594Z,8.60
2019-05-09T12:10:49.233Z,6.40
2019-05-09T12:11:52.927Z,7.47
2019-05-09T12:12:57.647Z,9.33
2019-05-09T12:14:01.433Z,10.37
2019-05-09T12:15:08.917Z,11.03
2019-05-09T12:16:13.111Z,8.90
2019-05-09T12:17:19.602Z,6.70
2019-05-09T12:18:23.580Z,9.10
2019-05-09T12:19:29.503Z,9.40
2019-05-09T12:20:33.230Z,8.60
2019-05-09T12:21:44.941Z,9.73
2019-05-09T12:22:42.438Z,8.90
2019-05-09T12:23:48.589Z,7.23
2019-05-09T12:24:53.811Z,7.63
2019-05-09T12:25:58.226Z,9.23
2019-05-09T12:27:03.018Z,8.87
2019-05-09T12:28:07.888Z,7.77
2019-05-09T12:29:11.815Z,6.87
2019-05-09T12:30:15.675Z,10.17
2019-05-09T12:31:19.357Z,6.83
2019-05-09T12:32:22.998Z,9.80
2019-05-09T12:33:28.810Z,6.83
2019-05-09T12:34:32.101Z,8.43
2019-05-09T12:35:38.257Z,9.17
2019-05-09T12:36:41.216Z,8.97
2019-05-09T12:37:44.844Z,7.00
2019-05-09T12:38:49.732Z,8.80
2019-05-09T12:39:54.164Z,7.70
2019-05-09T12:41:00.579Z,7.77
2019-05-09T12:42:03.313Z,7.93
2019-05-09T12:43:09.101Z,7.80
2019-05-09T12:44:12.343Z,9.47
2019-05-09T12:45:18.006Z,9.17
2019-05-09T12:46:21.391Z,7.87
2019-05-09T12:47:28.852Z,7.50
2019-05-09T12:48:31.354Z,12.43
2019-05-09T12:49:35.048Z,9.87
2019-05-09T12:50:38.867Z,7.20
2019-05-09T12:51:42.614Z,9.67
2019-05-09T12:52:48.783Z,8.43
2019-05-09T12:53:52.113Z,10.47
2019-05-09T12:54:58.133Z,10.07
2019-05-09T12:56:01.602Z,12.50
2019-05-09T12:57:05.356Z,10.97
2019-05-09T12:58:10.996Z,9.60
2019-05-09T12:59:14.742Z,7.30
2019-05-09T13:00:18.898Z,11.97
2019-05-09T13:01:22.658Z,12.33
2019-05-09T13:02:27.890Z,12.53
2019-05-09T13:03:31.617Z,8.10
2019-05-09T13:04:35.253Z,10.70
2019-05-09T13:05:39.057Z,12.97
2019-05-09T13:06:42.725Z,11.57
2019-05-09T13:07:48.080Z,10.97
2019-05-09T13:08:52.471Z,9.43
2019-05-09T13:09:58.219Z,11.73
2019-05-09T13:11:02.612Z,12.40
2019-05-09T13:12:08.644Z,11.67
2019-05-09T13:13:11.834Z,11.30
2019-05-09T13:14:15.559Z,10.37
2019-05-09T13:15:21.370Z,16.40
2019-05-09T13:16:44.269Z,11.93
2019-05-09T13:17:39.416Z,12.47
2019-05-09T13:18:50.964Z,12.33
2019-05-09T13:19:54.629Z,12.03
2019-05-09T13:20:58.299Z,8.87
2019-05-09T13:22:03.455Z,12.40
2019-05-09T13:23:08.899Z,11.47
2019-05-09T13:24:12.756Z,9.47
2019-05-09T13:25:18.755Z,11.07
2019-05-09T13:26:24.623Z,11.93
2019-05-09T13:27:29.251Z,10.90
2019-05-09T13:28:32.958Z,11.43
2019-05-09T13:29:38.040Z,12.67
2019-05-09T13:30:41.899Z,9.47
2019-05-09T13:31:47.931Z,11.57
2019-05-09T13:32:52.726Z,12.77
2019-05-09T13:33:58.331Z,16.40
2019-05-09T13:35:02.114Z,14.87
2019-05-09T13:36:05.921Z,14.53
2019-05-09T13:37:09.694Z,12.70
2019-05-09T13:38:13.331Z,15.93
2019-05-09T13:39:17.980Z,12.23
2019-05-09T13:40:22.337Z,14.10
2019-05-09T13:41:25.960Z,12.60
2019-05-09T13:42:29.642Z,13.07
2019-05-09T13:43:33.476Z,12.73
2019-05-09T13:44:41.267Z,14.77
2019-05-09T13:45:42.469Z,11.40
2019-05-09T13:46:48.602Z,13.10
2019-05-09T13:47:51.720Z,14.97
2019-05-09T13:49:08.291Z,11.03
2019-05-09T13:50:01.155Z,12.37
2019-05-09T13:51:07.721Z,18.97
2019-05-09T13:52:11.429Z,15.60
2019-05-09T13:53:15.442Z,12.37
2019-05-09T13:54:19.211Z,10.23
2019-05-09T13:55:23.264Z,14.73
2019-05-09T13:56:27.958Z,9.77
2019-05-09T13:57:33.357Z,13.83
2019-05-09T13:58:39.673Z,14.03
2019-05-09T13:59:48.364Z,13.50
2019-05-09T14:00:59.052Z,8.90
2019-05-09T14:01:54.545Z,13.30
2019-05-09T14:02:58.213Z,16.30
2019-05-09T14:04:03.203Z,12.90
2019-05-09T14:05:08.856Z,12.83
2019-05-09T14:06:12.900Z,10.00
2019-05-09T14:07:19.417Z,12.03
2019-05-09T14:08:23.409Z,8.33
2019-05-09T14:09:29.226Z,9.13
2019-05-09T14:10:34.677Z,9.87
2019-05-09T14:11:39.376Z,16.60
2019-05-09T14:12:43.086Z,12.63
2019-05-09T14:13:48.716Z,11.27
2019-05-09T14:14:52.295Z,10.13